Time;durP1;ratioP1;P1;durP2;ratioP2;P2;SDS_P1;SDS_P2;PMS_P1;PMS_P2;Temp;Humidity;BMP_temperature;BMP_pressure;BME280_temperature;BME280_humidity;BME280_pressure;Samples;Min_cycle;Max_cycle;Signal;HPM_P1;HPM_P2
2022/10/14 00:01:13;;;;;;;10.20;3.37;;;;;;;-143.84;82.57;45094.78;5112720;28;20482;-74
2022/10/14 00:03:42;;;;;;;3.10;2.87;;;;;;;-143.84;82.46;45129.03;5112598;28;20513;-74
2022/10/14 00:06:12;;;;;;;7.60;3.30;;;;;;;-143.84;82.84;45119.53;5112674;28;20527;-74
2022/10/14 00:08:40;;;;;;;6.67;3.33;;;;;;;-143.84;82.51;45110.00;5113027;28;20436;-74
2022/10/14 00:11:09;;;;;;;6.13;3.50;;;;;;;-143.84;82.55;45142.38;5112528;28;20518;-74
2022/10/14 00:13:36;;;;;;;3.30;3.00;;;;;;;-143.84;82.46;45129.03;5112451;28;20520;-74
2022/10/14 00:16:05;;;;;;;3.23;2.93;;;;;;;-143.84;82.84;45129.03;5112311;28;20490;-74
2022/10/14 00:18:32;;;;;;;4.70;3.60;;;;;;;-143.84;82.86;45132.84;5112465;28;20516;-74
2022/10/14 00:21:02;;;;;;;3.03;2.70;;;;;;;-143.84;83.38;45138.56;5112650;28;20441;-74
2022/10/14 00:23:30;;;;;;;4.20;2.80;;;;;;;-143.84;83.40;45127.13;5112854;28;20457;-74
2022/10/14 00:25:57;;;;;;;4.33;3.17;;;;;;;-143.84;83.58;45142.38;5112703;28;20487;-74
2022/10/14 00:28:24;;;;;;;5.73;3.47;;;;;;;-143.84;83.69;45142.38;5112223;28;20524;-74
2022/10/14 00:30:55;;;;;;;4.03;3.23;;;;;;;-143.84;83.72;45117.63;5111795;28;20506;-74
2022/10/14 00:33:22;;;;;;;3.10;2.87;;;;;;;-143.84;83.52;45150.00;5111836;28;20435;-74
2022/10/14 00:35:57;;;;;;;6.17;3.57;;;;;;;-143.84;83.53;45134.75;5111612;28;21317;-74
2022/10/14 00:38:25;;;;;;;6.27;3.30;;;;;;;-143.84;83.34;45125.22;5112178;28;20445;-74
2022/10/14 00:40:54;;;;;;;3.70;3.40;;;;;;;-143.84;83.16;45130.94;5111877;28;20431;-74
2022/10/14 00:43:22;;;;;;;7.13;3.40;;;;;;;-143.84;83.09;45127.13;5111514;28;20541;-74
2022/10/14 00:45:49;;;;;;;4.07;3.67;;;;;;;-143.84;83.32;45148.09;5093619;28;21024;-74
2022/10/14 00:48:19;;;;;;;4.57;3.10;;;;;;;-143.84;83.38;45159.50;5112057;28;20430;-74
2022/10/14 00:50:49;;;;;;;6.70;3.47;;;;;;;-143.84;83.40;45144.28;5112089;28;20445;-74
2022/10/14 00:53:18;;;;;;;4.33;3.93;;;;;;;-143.84;83.58;45102.38;5111683;28;20445;-74
2022/10/14 00:55:46;;;;;;;4.23;3.30;;;;;;;-143.84;83.61;45136.66;5111893;28;20484;-74
2022/10/14 00:58:16;;;;;;;13.87;3.87;;;;;;;-143.84;83.63;45144.28;5111410;28;20489;-74
2022/10/14 01:00:43;;;;;;;4.67;3.83;;;;;;;-143.84;83.67;45115.72;5111658;28;20518;-74
2022/10/14 01:03:17;;;;;;;12.90;4.83;;;;;;;-143.84;83.45;45144.28;5111795;28;20443;-74
2022/10/14 01:05:53;;;;;;;5.90;3.97;;;;;;;-143.84;83.49;45108.09;5111222;28;20453;-74
2022/10/14 01:08:27;;;;;;;6.60;4.37;;;;;;;-143.84;83.12;45115.72;5111663;28;20437;-74
2022/10/14 01:11:02;;;;;;;4.53;3.63;;;;;;;-143.84;82.96;45132.84;5111113;28;20815;-74
2022/10/14 01:13:34;;;;;;;11.20;5.80;;;;;;;-143.84;82.66;45129.03;5111134;28;20530;-74
2022/10/14 01:16:11;;;;;;;13.80;5.03;;;;;;;-143.84;83.21;45115.72;5111377;28;20463;-74
2022/10/14 01:19:02;;;;;;;8.73;6.13;;;;;;;-143.84;83.25;45132.84;5111379;28;20499;-74
2022/10/14 01:21:35;;;;;;;9.60;5.83;;;;;;;-143.84;83.66;45110.00;5110901;28;20504;-74
2022/10/14 01:24:28;;;;;;;8.47;5.20;;;;;;;-143.84;84.26;45150.00;5111073;28;20440;-74
2022/10/14 01:27:31;;;;;;;11.40;5.60;;;;;;;-143.84;84.60;45144.28;5110777;28;20443;-74
2022/10/14 01:30:11;;;;;;;8.07;4.73;;;;;;;-143.84;85.08;45125.22;5110906;28;20451;-74
2022/10/14 01:32:50;;;;;;;12.60;4.87;;;;;;;-143.84;85.28;45134.75;5110766;28;20585;-74
2022/10/14 01:35:25;;;;;;;5.87;4.03;;;;;;;-143.84;85.47;45111.91;5110949;28;20554;-74
2022/10/14 01:37:58;;;;;;;5.73;3.33;;;;;;;-143.84;85.42;45117.63;5110767;28;20895;-74
2022/10/14 01:40:33;;;;;;;5.03;4.23;;;;;;;-143.84;86.00;45129.03;5110768;28;20442;-74
2022/10/14 01:43:03;;;;;;;6.90;4.20;;;;;;;-143.84;86.02;45123.34;5111033;28;20435;-74
2022/10/14 01:45:35;;;;;;;6.07;4.30;;;;;;;-143.84;86.05;45130.94;5110815;28;20944;-74
2022/10/14 01:48:05;;;;;;;7.67;4.20;;;;;;;-143.84;86.10;45130.94;5110849;28;20425;-74
2022/10/14 01:50:35;;;;;;;8.47;4.93;;;;;;;-143.84;85.80;45123.34;5110405;28;20434;-74
2022/10/14 01:53:07;;;;;;;12.57;5.93;;;;;;;-143.84;85.54;45123.34;5110704;28;20446;-75
2022/10/14 01:55:38;;;;;;;8.27;5.70;;;;;;;-143.84;85.63;45134.75;5094089;28;20514;-75
2022/10/14 01:58:07;;;;;;;11.17;6.53;;;;;;;-143.84;85.60;45121.44;5092457;28;21161;-75
2022/10/14 02:00:35;;;;;;;10.60;6.60;;;;;;;-143.84;85.58;45138.56;5089352;28;20524;-74
2022/10/14 02:03:02;;;;;;;11.90;6.93;;;;;;;-143.84;85.46;45138.56;5089765;28;20577;-74
2022/10/14 02:05:35;;;;;;;24.13;5.90;;;;;;;-143.84;85.30;45138.56;5090200;28;20522;-74
2022/10/14 02:08:11;;;;;;;9.17;5.63;;;;;;;-143.84;85.01;45127.13;5089940;28;20516;-75
2022/10/14 02:10:56;;;;;;;8.63;6.60;;;;;;;-143.84;84.79;45113.81;5089924;28;20551;-75
2022/10/14 02:13:37;;;;;;;13.60;7.30;;;;;;;-143.84;84.61;45142.38;5089718;28;20537;-74
2022/10/14 02:16:20;;;;;;;15.30;6.77;;;;;;;-143.84;84.43;45121.44;5089733;28;20484;-75
2022/10/14 02:18:51;;;;;;;24.03;9.20;;;;;;;-143.84;84.40;45125.22;5089876;28;20440;-74
2022/10/14 02:21:24;;;;;;;13.93;8.37;;;;;;;-143.84;84.07;45136.66;5089403;28;21125;-74
2022/10/14 02:23:59;;;;;;;15.33;7.73;;;;;;;-143.84;83.71;45119.53;5089484;28;20518;-74
2022/10/14 02:26:27;;;;;;;22.10;9.17;;;;;;;-143.84;83.58;45119.53;5090084;28;20552;-74
2022/10/14 02:28:55;;;;;;;24.47;12.20;;;;;;;-143.84;83.38;45146.19;5089348;28;20433;-74
2022/10/14 02:31:28;;;;;;;26.63;12.80;;;;;;;-143.84;83.43;45110.00;5088919;28;20489;-74
2022/10/14 02:33:59;;;;;;;16.93;9.57;;;;;;;-143.84;83.22;45142.38;5089169;28;20969;-74
2022/10/14 02:36:27;;;;;;;15.90;9.93;;;;;;;-143.84;83.00;45125.22;5089031;28;21037;-74
2022/10/14 02:38:57;;;;;;;14.03;7.80;;;;;;;-143.84;82.66;45130.94;5089625;28;20450;-74
2022/10/14 02:41:28;;;;;;;13.93;8.10;;;;;;;-143.84;83.11;45127.13;5089723;28;20504;-74
2022/10/14 02:43:55;;;;;;;13.00;7.97;;;;;;;-143.84;83.24;45129.03;5089071;28;20506;-74
2022/10/14 02:46:23;;;;;;;12.13;7.93;;;;;;;-143.84;83.33;45106.19;5089141;28;20500;-74
2022/10/14 02:48:51;;;;;;;11.97;7.17;;;;;;;-143.84;83.49;45119.53;5089195;28;20443;-74
2022/10/14 02:51:18;;;;;;;14.13;8.80;;;;;;;-143.84;83.25;45148.09;5089111;28;20956;-74
2022/10/14 02:53:45;;;;;;;17.90;9.27;;;;;;;-143.84;83.36;45130.94;5089004;28;20474;-74
2022/10/14 02:56:14;;;;;;;11.90;8.17;;;;;;;-143.84;83.39;45130.94;5089380;28;20890;-74
2022/10/14 02:58:41;;;;;;;12.50;7.17;;;;;;;-143.84;83.74;45151.91;5107519;28;20450;-74
2022/10/14 03:01:08;;;;;;;15.37;5.27;;;;;;;-143.84;84.09;45148.09;5109840;28;20507;-74
2022/10/14 03:03:37;;;;;;;12.40;5.83;;;;;;;-143.84;84.08;45119.53;5109608;28;20444;-74
2022/10/14 03:06:04;;;;;;;5.07;4.57;;;;;;;-143.84;84.06;45115.72;5109555;28;20452;-74
2022/10/14 03:08:31;;;;;;;8.27;4.83;;;;;;;-143.84;84.09;45111.91;5109968;28;20433;-74
2022/10/14 03:10:58;;;;;;;8.10;4.17;;;;;;;-143.84;83.95;45130.94;5109866;28;21050;-74
2022/10/14 03:13:26;;;;;;;11.37;5.37;;;;;;;-143.84;83.93;45136.66;5111518;28;20659;-74
2022/10/14 03:15:53;;;;;;;8.60;4.70;;;;;;;-143.84;83.91;45136.66;5113600;28;20477;-74
2022/10/14 03:18:20;;;;;;;4.90;4.27;;;;;;;-143.84;84.03;45127.13;5113676;28;20448;-74
2022/10/14 03:20:48;;;;;;;6.40;4.57;;;;;;;-143.84;83.95;45125.22;5113584;28;21162;-74
2022/10/14 03:23:16;;;;;;;13.57;5.50;;;;;;;-143.84;84.06;45142.38;5113013;28;20436;-74
2022/10/14 03:25:44;;;;;;;5.70;4.83;;;;;;;-143.84;83.98;45142.38;5113070;28;20498;-73
2022/10/14 03:28:12;;;;;;;5.03;4.60;;;;;;;-143.84;83.77;45117.63;5112949;28;20445;-74
2022/10/14 03:30:39;;;;;;;6.90;4.40;;;;;;;-143.84;83.58;45115.72;5112690;28;20452;-74
2022/10/14 03:33:07;;;;;;;3.47;3.17;;;;;;;-143.84;83.32;45150.00;5113113;28;20492;-74
2022/10/14 03:35:34;;;;;;;5.30;4.23;;;;;;;-143.84;83.39;45142.38;5112682;28;20528;-74
2022/10/14 03:38:04;;;;;;;5.90;3.80;;;;;;;-143.84;83.28;45148.09;5112577;28;20441;-74
2022/10/14 03:40:31;;;;;;;9.00;4.97;;;;;;;-143.84;83.25;45144.28;5112569;28;20481;-74
2022/10/14 03:43:00;;;;;;;9.07;5.50;;;;;;;-143.84;83.21;45123.34;5107279;28;20446;-74
2022/10/14 03:45:28;;;;;;;9.90;6.30;;;;;;;-143.84;83.27;45148.09;5092129;28;20448;-74
2022/10/14 03:47:55;;;;;;;5.87;5.27;;;;;;;-143.84;83.31;45125.22;5092297;28;20465;-74
2022/10/14 03:50:22;;;;;;;24.70;5.10;;;;;;;-143.84;83.43;45138.56;5091774;28;20436;-73
2022/10/14 03:52:50;;;;;;;12.43;6.30;;;;;;;-143.84;83.46;45113.81;5097267;28;20465;-77
2022/10/14 03:55:18;;;;;;;8.67;5.40;;;;;;;-143.84;83.52;45140.47;5112088;28;20502;-74
2022/10/14 03:57:45;;;;;;;17.80;5.10;;;;;;;-143.84;83.67;45121.44;5112380;28;20968;-73
2022/10/14 04:00:14;;;;;;;9.60;4.20;;;;;;;-143.84;83.50;45134.75;5112558;28;20438;-75
2022/10/14 04:02:41;;;;;;;6.83;4.10;;;;;;;-143.84;83.32;45106.19;5112762;28;20441;-74
2022/10/14 04:05:10;;;;;;;6.90;5.13;;;;;;;-143.84;83.49;45132.84;5112117;28;20448;-72
2022/10/14 04:07:37;;;;;;;11.30;4.83;;;;;;;-143.84;83.50;45150.00;5112625;28;20448;-74
2022/10/14 04:10:05;;;;;;;5.57;4.57;;;;;;;-143.84;83.35;45121.44;5112253;28;20476;-74
2022/10/14 04:12:34;;;;;;;10.07;4.70;;;;;;;-143.84;83.49;45148.09;5101976;28;20790;-74
2022/10/14 04:15:01;;;;;;;4.50;3.10;;;;;;;-143.84;83.57;45155.69;5091511;28;20780;-74
2022/10/14 04:17:29;;;;;;;5.47;3.47;;;;;;;-143.84;83.47;45129.03;5091700;28;20828;-74
2022/10/14 04:19:56;;;;;;;9.57;3.87;;;;;;;-143.84;83.32;45148.09;5090946;28;20436;-74
2022/10/14 04:22:23;;;;;;;11.97;3.83;;;;;;;-143.84;83.41;45136.66;5094478;28;21121;-74
2022/10/14 04:24:50;;;;;;;7.83;4.50;;;;;;;-143.84;83.33;45129.03;5111437;28;20438;-74
2022/10/14 04:27:17;;;;;;;12.83;4.30;;;;;;;-143.84;82.98;45119.53;5111715;28;20878;-72
2022/10/14 04:29:46;;;;;;;4.20;3.57;;;;;;;-143.84;83.00;45138.56;5112127;28;21015;-75
2022/10/14 04:32:13;;;;;;;9.13;3.90;;;;;;;-143.84;82.92;45125.22;5112314;28;21047;-76
2022/10/14 04:34:40;;;;;;;10.23;4.87;;;;;;;-143.84;82.73;45144.28;5111701;28;20438;-75
2022/10/14 04:37:07;;;;;;;4.07;3.77;;;;;;;-143.84;82.75;45132.84;5112215;28;20472;-73
2022/10/14 04:39:34;;;;;;;14.50;3.77;;;;;;;-143.84;83.11;45148.09;5112796;28;20445;-73
2022/10/14 04:42:01;;;;;;;4.33;3.93;;;;;;;-143.84;83.32;45130.94;5107611;28;20448;-73
2022/10/14 04:44:29;;;;;;;9.13;4.20;;;;;;;-143.84;83.24;45102.38;5091948;28;20798;-74
2022/10/14 04:46:58;;;;;;;4.50;4.10;;;;;;;-143.84;83.53;45134.75;5091402;28;20450;-74
2022/10/14 04:49:25;;;;;;;18.23;4.30;;;;;;;-143.84;83.63;45106.19;5091186;28;20516;-74
2022/10/14 04:51:52;;;;;;;8.23;4.30;;;;;;;-143.84;83.66;45129.03;5091124;28;20870;-74
2022/10/14 04:54:20;;;;;;;5.50;5.00;;;;;;;-143.84;83.86;45134.75;5091759;28;20428;-74
2022/10/14 04:56:47;;;;;;;10.00;4.60;;;;;;;-143.84;84.12;45111.91;5091298;28;20948;-74
2022/10/14 04:59:14;;;;;;;4.60;4.20;;;;;;;-143.84;84.41;45140.47;5091467;28;20448;-74
2022/10/14 05:01:41;;;;;;;6.20;4.37;;;;;;;-143.84;84.49;45140.47;5073121;28;20490;-74
2022/10/14 05:04:10;;;;;;;6.03;4.90;;;;;;;-143.84;84.57;45130.94;5091093;28;20448;-74
2022/10/14 05:06:37;;;;;;;12.00;4.97;;;;;;;-143.84;84.97;45186.16;5091481;28;20452;-74
2022/10/14 05:09:05;;;;;;;10.33;5.10;;;;;;;-143.84;85.23;45125.22;5091202;28;20443;-74
2022/10/14 05:11:32;;;;;;;7.37;5.40;;;;;;;-143.84;85.92;45129.03;5090923;28;20451;-74
2022/10/14 05:13:59;;;;;;;11.37;6.63;;;;;;;-143.84;86.66;45119.53;5090916;28;20467;-74
2022/10/14 05:16:27;;;;;;;7.70;5.93;;;;;;;-143.84;87.13;45125.22;5090559;28;20544;-74
2022/10/14 05:18:54;;;;;;;16.73;7.30;;;;;;;-143.84;87.74;45155.69;5090484;28;20450;-74
2022/10/14 05:21:22;;;;;;;11.40;7.03;;;;;;;-143.84;87.98;45136.66;5090491;28;20442;-74
2022/10/14 05:23:49;;;;;;;10.20;7.30;;;;;;;-143.84;88.53;45130.94;5091036;28;20469;-74
2022/10/14 05:26:17;;;;;;;15.50;7.80;;;;;;;-143.84;88.81;45146.19;5090774;28;20516;-72
2022/10/14 05:28:44;;;;;;;11.13;7.53;;;;;;;-143.84;89.18;45142.38;5090147;28;20443;-72
2022/10/14 05:31:11;;;;;;;9.20;8.10;;;;;;;-143.84;89.67;45121.44;5089942;28;20545;-72
2022/10/14 05:33:39;;;;;;;17.60;9.37;;;;;;;-143.84;89.91;45157.59;5089957;28;20438;-72
2022/10/14 05:36:06;;;;;;;15.13;9.50;;;;;;;-143.84;89.84;45144.28;5088990;28;20474;-72
2022/10/14 05:38:35;;;;;;;14.20;8.23;;;;;;;-143.84;89.21;45123.34;5089701;28;20450;-72
2022/10/14 05:41:02;;;;;;;13.60;9.20;;;;;;;-143.84;87.91;45129.03;5089670;28;20447;-72
2022/10/14 05:43:29;;;;;;;19.83;8.80;;;;;;;-143.84;86.85;45148.09;5089776;28;20437;-72
2022/10/14 05:45:56;;;;;;;20.67;9.70;;;;;;;-143.84;85.77;45129.03;5089530;28;20494;-72
2022/10/14 05:48:24;;;;;;;23.10;9.63;;;;;;;-143.84;85.08;45125.22;5089645;28;20440;-72
2022/10/14 05:50:51;;;;;;;25.63;11.03;;;;;;;-143.84;83.89;45096.66;5089538;28;20441;-72
2022/10/14 05:53:18;;;;;;;17.40;11.00;;;;;;;-143.84;83.72;45127.13;5089788;28;20488;-72
2022/10/14 05:55:47;;;;;;;20.47;10.50;;;;;;;-143.84;83.20;45110.00;5089659;28;20970;-72
2022/10/14 05:58:14;;;;;;;25.43;11.40;;;;;;;-143.84;82.15;45090.97;5089695;28;20524;-72
2022/10/14 06:00:41;;;;;;;19.77;9.43;;;;;;;-143.84;81.81;45132.84;5089464;28;20876;-72
2022/10/14 06:03:11;;;;;;;19.03;10.27;;;;;;;-143.84;81.49;45140.47;5089226;28;20444;-72
2022/10/14 06:05:38;;;;;;;23.40;9.20;;;;;;;-143.84;81.04;45113.81;5089473;28;20829;-72
2022/10/14 06:08:06;;;;;;;13.53;8.40;;;;;;;-143.84;81.10;45127.13;5089255;28;20447;-72
2022/10/14 06:10:35;;;;;;;19.10;9.03;;;;;;;-143.84;80.89;45132.84;5089194;28;20445;-72
2022/10/14 06:13:03;;;;;;;13.93;7.70;;;;;;;-143.84;80.94;45121.44;5089178;28;20445;-72
2022/10/14 06:15:30;;;;;;;14.53;7.40;;;;;;;-143.84;80.81;45106.19;5089121;28;20441;-72
2022/10/14 06:17:57;;;;;;;12.87;8.50;;;;;;;-143.84;81.21;45136.66;5089047;28;20514;-72
2022/10/14 06:20:25;;;;;;;14.43;7.90;;;;;;;-143.84;81.01;45111.91;5089137;28;20432;-72
2022/10/14 06:22:52;;;;;;;9.87;7.77;;;;;;;-143.84;81.03;45110.00;5089099;28;20455;-72
2022/10/14 06:25:20;;;;;;;9.70;6.80;;;;;;;-143.84;80.85;45138.56;5088994;28;20437;-73
2022/10/14 06:27:47;;;;;;;18.50;6.33;;;;;;;-143.84;80.85;45110.00;5089080;28;20922;-72
2022/10/14 06:30:15;;;;;;;21.00;7.30;;;;;;;-143.84;80.40;45092.88;5089031;28;20512;-72
2022/10/14 06:32:43;;;;;;;11.10;7.20;;;;;;;-143.84;80.16;45110.00;5088798;28;20482;-72
2022/10/14 06:35:10;;;;;;;9.00;6.57;;;;;;;-143.84;79.80;45129.03;5089215;28;20434;-73
2022/10/14 06:37:37;;;;;;;6.77;6.00;;;;;;;-143.84;79.71;45127.13;5089178;28;20508;-72
2022/10/14 06:40:06;;;;;;;9.00;5.67;;;;;;;-143.84;78.94;45142.38;5088891;28;20442;-72
2022/10/14 06:42:34;;;;;;;7.87;6.23;;;;;;;-143.84;78.78;45129.03;5089173;28;20508;-72
2022/10/14 06:45:01;;;;;;;13.03;6.00;;;;;;;-143.84;77.89;45119.53;5088995;28;20455;-72
2022/10/14 06:47:30;;;;;;;13.50;6.40;;;;;;;-143.84;77.16;45094.78;5090631;28;20432;-73
2022/10/14 06:49:57;;;;;;;10.80;5.40;;;;;;;-143.84;76.90;45085.25;5093223;28;20439;-73
2022/10/14 06:52:24;;;;;;;8.57;4.80;;;;;;;-143.84;74.98;45113.81;5093184;28;20458;-72
2022/10/14 06:54:51;;;;;;;7.83;5.53;;;;;;;-143.84;73.17;45094.78;5092806;28;20448;-73
2022/10/14 06:57:18;;;;;;;8.57;5.83;;;;;;;-143.84;73.16;45108.09;5092759;28;20478;-73
2022/10/14 06:59:46;;;;;;;9.50;6.20;;;;;;;-143.84;73.00;45089.06;5093617;28;20435;-74
2022/10/14 07:02:13;;;;;;;8.43;4.80;;;;;;;-143.84;73.05;45098.56;5093296;28;20941;-74
2022/10/14 07:04:42;;;;;;;7.20;5.40;;;;;;;-143.84;72.79;45110.00;5093196;28;20439;-74
2022/10/14 07:07:09;;;;;;;15.20;5.57;;;;;;;-143.84;73.02;45115.72;5093265;28;20509;-74
2022/10/14 07:09:36;;;;;;;15.03;5.10;;;;;;;-143.84;72.02;45102.38;5093062;28;20485;-74
2022/10/14 07:12:04;;;;;;;8.73;4.80;;;;;;;-143.84;71.45;45075.72;5093167;28;20455;-74
2022/10/14 07:14:31;;;;;;;11.53;6.07;;;;;;;-143.84;70.66;45102.38;5093094;28;20442;-74
2022/10/14 07:16:59;;;;;;;9.50;5.23;;;;;;;-143.84;70.70;45111.91;5093159;28;20471;-74
2022/10/14 07:19:26;;;;;;;8.83;4.63;;;;;;;-143.84;71.74;45083.34;5093301;28;20428;-74
2022/10/14 07:21:55;;;;;;;9.47;4.50;;;;;;;-143.84;72.08;45090.97;5093123;28;20956;-74
2022/10/14 07:24:22;;;;;;;14.50;5.10;;;;;;;-143.84;69.54;45079.53;5092999;28;20431;-74
2022/10/14 07:26:49;;;;;;;8.33;5.00;;;;;;;-143.84;69.22;45083.34;5092823;28;20444;-74
2022/10/14 07:29:17;;;;;;;9.40;4.83;;;;;;;-143.84;69.32;45085.25;5092894;28;20435;-74
2022/10/14 07:31:44;;;;;;;4.90;4.20;;;;;;;-143.84;68.73;45043.34;5092412;28;20517;-74
2022/10/14 07:34:11;;;;;;;10.60;5.00;;;;;;;-143.84;68.80;45090.97;5074478;28;20428;-74
2022/10/14 07:36:39;;;;;;;10.20;5.13;;;;;;;-143.84;67.96;45117.63;5092575;28;20929;-74
2022/10/14 07:39:07;;;;;;;9.23;5.13;;;;;;;-143.84;67.84;45098.56;5092606;28;20444;-74
2022/10/14 07:41:35;;;;;;;9.70;5.07;;;;;;;-143.84;67.38;45085.25;5092515;28;20932;-74
2022/10/14 07:44:07;;;;;;;12.57;6.10;;;;;;;-143.84;67.77;45090.97;5092232;28;20449;-74
2022/10/14 07:46:37;;;;;;;7.33;5.10;;;;;;;-143.84;67.58;45087.16;5092461;28;20432;-74
2022/10/14 07:49:07;;;;;;;9.07;5.00;;;;;;;-143.84;66.81;45087.16;5092585;28;20509;-74
2022/10/14 07:51:35;;;;;;;6.03;5.20;;;;;;;-143.84;65.14;45081.44;5092964;28;20443;-73
2022/10/14 07:54:04;;;;;;;8.03;5.20;;;;;;;-143.84;64.23;45087.16;5092492;28;20862;-73
2022/10/14 07:56:33;;;;;;;18.10;5.70;;;;;;;-143.84;64.91;45077.63;5092320;28;20838;-74
2022/10/14 07:59:01;;;;;;;10.67;4.27;;;;;;;-143.84;62.88;45090.97;5091667;28;20447;-74
2022/10/14 08:01:28;;;;;;;10.23;4.87;;;;;;;-143.84;61.55;45075.72;5092504;28;20945;-74
2022/10/14 08:03:55;;;;;;;13.63;4.83;;;;;;;-143.84;60.35;45070.00;5092818;28;20440;-74
2022/10/14 08:06:23;;;;;;;9.10;4.50;;;;;;;-143.84;60.78;45054.78;5092633;28;20436;-74
2022/10/14 08:08:51;;;;;;;6.77;4.37;;;;;;;-143.84;58.04;45060.50;5092388;28;20439;-74
2022/10/14 08:11:20;;;;;;;5.40;3.90;;;;;;;-143.84;55.77;45075.72;5092556;28;20868;-74
2022/10/14 08:13:50;;;;;;;5.53;3.90;;;;;;;-143.84;52.95;45037.66;5092302;28;20497;-74
2022/10/14 08:16:19;;;;;;;7.53;3.87;;;;;;;-143.84;52.38;45083.34;5092290;28;20869;-74
2022/10/14 08:18:47;;;;;;;10.63;4.00;;;;;;;-143.84;51.51;45043.34;5092358;28;20988;-74
2022/10/14 08:21:15;;;;;;;8.80;3.97;;;;;;;-143.84;52.07;45083.34;5092512;28;20431;-74
2022/10/14 08:23:43;;;;;;;6.40;3.97;;;;;;;-143.84;50.36;45060.50;5092348;28;20435;-74
2022/10/14 08:26:20;;;;;;;10.83;3.93;;;;;;;-143.84;51.21;45073.81;5090919;28;20493;-74
2022/10/14 08:28:49;;;;;;;11.33;4.47;;;;;;;-143.84;52.30;45054.78;5091348;28;20447;-74
2022/10/14 08:31:17;;;;;;;9.73;4.63;;;;;;;-143.84;53.41;45052.88;5091261;28;20545;-74
2022/10/14 08:33:45;;;;;;;4.93;3.40;;;;;;;-143.84;52.92;45056.69;5090309;28;20892;-74
2022/10/14 08:36:12;;;;;;;11.93;3.67;;;;;;;-143.84;51.96;45075.72;5091193;28;20440;-74
2022/10/14 08:38:40;;;;;;;5.80;3.90;;;;;;;-143.84;50.56;45049.06;5092031;28;21041;-74
2022/10/14 08:41:24;;;;;;;9.90;3.80;;;;;;;-143.84;49.96;45062.41;5092079;28;20420;-74
2022/10/14 08:44:05;;;;;;;8.70;4.00;;;;;;;-143.84;50.19;45054.78;5091871;28;20515;-74
2022/10/14 08:46:39;;;;;;;14.70;4.07;;;;;;;-143.84;49.97;45073.81;5091915;28;20995;-74
2022/10/14 08:49:15;;;;;;;5.30;3.10;;;;;;;-143.84;47.79;45071.91;5091642;28;20937;-74
2022/10/14 08:51:46;;;;;;;21.30;4.07;;;;;;;-143.84;47.43;45056.69;5091737;28;20439;-74
2022/10/14 08:54:20;;;;;;;11.40;3.40;;;;;;;-143.84;46.68;45020.50;5092030;28;20436;-74
2022/10/14 08:56:48;;;;;;;11.37;3.13;;;;;;;-143.84;45.64;45043.34;5091422;28;20488;-74
2022/10/14 08:59:20;;;;;;;6.90;3.20;;;;;;;-143.84;46.64;45054.78;5091370;28;20469;-74
2022/10/14 09:01:52;;;;;;;12.03;3.43;;;;;;;-143.84;45.13;45056.69;5090111;28;20436;-74
2022/10/14 09:04:20;;;;;;;4.50;2.90;;;;;;;-143.84;44.08;45035.75;5089859;28;21141;-74
2022/10/14 09:06:49;;;;;;;7.70;3.20;;;;;;;-143.84;44.61;45049.06;5090727;28;20435;-74
2022/10/14 09:09:22;;;;;;;6.40;3.10;;;;;;;-143.84;44.46;45033.84;5091390;28;20436;-74
2022/10/14 09:11:54;;;;;;;9.60;4.10;;;;;;;-143.84;44.38;45045.25;5090336;28;20431;-74
2022/10/14 09:14:27;;;;;;;16.03;3.30;;;;;;;-143.84;44.10;45043.34;5091434;28;20451;-74
2022/10/14 09:17:00;;;;;;;9.53;3.57;;;;;;;-143.84;43.35;45033.84;5091191;28;20447;-74
2022/10/14 09:19:34;;;;;;;13.60;3.60;;;;;;;-143.84;44.21;45039.53;5091264;28;20440;-74
2022/10/14 09:22:17;;;;;;;10.20;3.17;;;;;;;-143.84;43.68;45024.31;5089532;28;20451;-74
2022/10/14 09:24:49;;;;;;;7.47;3.30;;;;;;;-143.84;44.66;45039.53;5091841;28;20584;-74
2022/10/14 09:27:21;;;;;;;11.93;4.03;;;;;;;-143.84;45.37;45028.13;5090686;28;20440;-74
2022/10/14 09:30:01;;;;;;;8.40;3.67;;;;;;;-143.84;45.10;45022.41;5089525;28;20478;-74
2022/10/14 09:42:51;;;;;;;9.30;3.13;;;;;;;-143.84;44.12;45045.25;5089492;28;20430;-74
2022/10/14 09:45:22;;;;;;;11.23;3.50;;;;;;;-143.84;44.59;45070.00;5089245;28;20440;-74
2022/10/14 09:47:53;;;;;;;7.00;3.50;;;;;;;-143.84;45.02;45052.88;5089087;28;20439;-74
2022/10/14 09:50:26;;;;;;;5.70;2.67;;;;;;;-143.84;44.73;45052.88;5089637;28;20920;-74
2022/10/14 09:53:00;;;;;;;7.70;3.50;;;;;;;-143.84;44.55;45035.75;5071787;28;20790;-75
2022/10/14 09:55:28;;;;;;;11.70;4.13;;;;;;;-143.84;44.63;45041.44;5089572;28;20547;-74
2022/10/14 09:58:04;;;;;;;19.33;3.93;;;;;;;-143.84;45.35;45031.94;5090028;28;20479;-74
2022/10/14 10:00:36;;;;;;;12.70;3.70;;;;;;;-143.84;44.69;45083.34;5090479;28;20471;-74
2022/10/14 10:03:04;;;;;;;8.80;3.97;;;;;;;-143.84;44.83;45047.16;5090382;28;20458;-74
2022/10/14 10:05:34;;;;;;;11.93;3.13;;;;;;;-143.84;46.55;45073.81;5090543;28;20485;-74
2022/10/14 10:08:09;;;;;;;12.23;3.63;;;;;;;-143.84;44.87;45052.88;5090394;28;20436;-74
2022/10/14 10:10:37;;;;;;;7.90;3.87;;;;;;;-143.84;45.21;45052.88;5089969;28;20443;-74
2022/10/14 10:13:04;;;;;;;12.00;3.30;;;;;;;-143.84;44.71;45037.66;5090115;28;20473;-74
2022/10/14 10:15:33;;;;;;;15.03;3.50;;;;;;;-143.84;44.87;45035.75;5090325;28;20448;-74
2022/10/14 10:18:00;;;;;;;13.40;3.30;;;;;;;-143.84;45.69;45049.06;5089757;28;21030;-74
2022/10/14 10:20:32;;;;;;;16.30;3.50;;;;;;;-143.84;45.60;45050.97;5090121;28;20440;-74
2022/10/14 10:23:16;;;;;;;5.03;2.80;;;;;;;-143.84;44.03;45047.16;5089520;28;20519;-74
2022/10/14 10:25:43;;;;;;;10.60;3.17;;;;;;;-143.84;43.47;45056.69;5090289;28;20844;-74
2022/10/14 10:28:19;;;;;;;17.70;3.23;;;;;;;-143.84;45.18;45062.41;5089958;28;20432;-74
2022/10/14 10:31:03;;;;;;;7.37;2.67;;;;;;;-143.84;44.01;45056.69;5089899;28;20462;-74
2022/10/14 10:33:42;;;;;;;16.90;3.00;;;;;;;-143.84;43.75;45035.75;5090107;28;20500;-74
2022/10/14 10:36:18;;;;;;;5.60;2.70;;;;;;;-143.84;43.95;45056.69;5090271;28;20501;-74
2022/10/14 10:38:58;;;;;;;10.90;3.43;;;;;;;-143.84;43.53;45064.31;5089450;28;20875;-74
2022/10/14 10:41:50;;;;;;;9.23;3.40;;;;;;;-143.84;41.98;45064.31;5089812;28;20444;-74
2022/10/14 10:44:51;;;;;;;5.50;2.37;;;;;;;-143.84;42.29;45043.34;5090220;28;20444;-74
2022/10/14 10:47:44;;;;;;;8.73;2.83;;;;;;;-143.84;43.44;45050.97;5072419;28;20459;-74
2022/10/14 10:50:27;;;;;;;6.87;2.90;;;;;;;-143.84;43.64;45052.88;5084604;28;20509;-74
2022/10/14 10:53:12;;;;;;;4.83;2.60;;;;;;;-143.84;43.63;45056.69;5089439;28;20436;-74
2022/10/14 10:55:53;;;;;;;3.40;2.00;;;;;;;-143.84;42.63;45052.88;5089907;28;20427;-74
2022/10/14 10:58:39;;;;;;;3.83;2.37;;;;;;;-143.84;42.89;45071.91;5089880;28;20511;-74
2022/10/14 11:01:20;;;;;;;7.80;2.90;;;;;;;-143.84;43.58;45058.59;5090032;28;20436;-74
2022/10/14 11:04:01;;;;;;;6.63;3.27;;;;;;;-143.84;43.86;45026.22;5089692;28;20509;-74
2022/10/14 11:12:14;;;;;;;11.63;3.30;;;;;;;-143.84;45.33;45056.69;5055769;28;20463;-74
2022/10/14 11:15:19;;;;;;;7.70;3.03;;;;;;;-143.84;43.88;45049.06;5089403;28;20526;-74
2022/10/14 11:17:51;;;;;;;16.10;2.90;;;;;;;-143.84;43.91;45043.34;4987416;28;20918;-74
2022/10/14 11:20:32;;;;;;;8.27;2.83;;;;;;;-143.84;43.79;45037.66;5075202;28;20473;-74
2022/10/14 11:23:33;;;;;;;6.50;2.20;;;;;;;-143.84;43.93;45026.22;5089528;28;20476;-74
2022/10/14 11:26:05;;;;;;;11.37;3.00;;;;;;;-143.84;44.50;45056.69;5089324;28;20812;-74
2022/10/14 11:28:43;;;;;;;6.90;2.80;;;;;;;-143.84;44.01;45045.25;5089699;28;20432;-74
2022/10/14 11:31:26;;;;;;;11.10;3.50;;;;;;;-143.84;44.90;45030.03;5089364;28;20500;-74
2022/10/14 11:34:14;;;;;;;14.10;3.27;;;;;;;-143.84;45.45;45066.22;5089977;28;20448;-74
2022/10/14 11:36:55;;;;;;;16.23;3.43;;;;;;;-143.84;45.47;45073.81;5093592;28;20826;-74
2022/10/14 11:39:35;;;;;;;14.70;2.83;;;;;;;-143.84;44.38;45054.78;5093080;28;20524;-74
2022/10/14 11:42:16;;;;;;;6.47;2.87;;;;;;;-143.84;46.38;45056.69;5093132;28;20444;-74
2022/10/14 11:44:44;;;;;;;8.30;2.67;;;;;;;-143.84;44.55;45052.88;5075066;28;20447;-74
2022/10/14 11:47:14;;;;;;;7.23;2.90;;;;;;;-143.84;45.00;45052.88;5093084;28;20447;-74